Wolf Point, MT

6:49 PM MST on December 28, 2014 (GMT -0700)
Clayton | Change Station
CLOSE
Current Station
Airport
Location: Wolf Point,
Elevation: 1985 ft
Nearby Weather Stations
Active Advisory: Wind Chill Advisory

Elev 1985 ft 48.09 °N, 105.58 °W | Updated 56 minutes ago

Overcast
Overcast
10 °F
Feels Like -6 °F
N
14
Wind Variable Wind from ENE

Today
High -- | Low -- °F
--% Chance of Precip.
Yesterday
High -- | Low -- °F
Precip. -- in
7:52 AM 4:15 PM
First Quarter, 53% visible
Pressure 30.48 in
Visibility 10.0 miles
Clouds Few 2500 ft
Overcast 9000 ft
Windchill -6 °F
Dew Point 0 °F
Humidity 64%
Rainfall 0.00 in
Snow Depth Not available.
UV 0 out of 12
Pollen .10 out of 12
Air Quality Not available.
Flu Activity Not available.
METAR KOLF 290053Z AUTO 06012KT 10SM FEW025 OVC090 M12/M18 A3035 RMK AO2 SLP321 T11221178

More Conditions Fewer Conditions

Pressure 30.48 in
Visibility 10.0 miles
Clouds Few 2500 ft
Overcast 9000 ft
Windchill -6 °F
Dew Point 0 °F
Humidity 64%
Rainfall 0.00 in
Snow Depth Not available.
UV 0 out of 12
Pollen .10 out of 12
Air Quality Not available.
Flu Activity Not available.
METAR KOLF 290053Z AUTO 06012KT 10SM FEW025 OVC090 M12/M18 A3035 RMK AO2 SLP321 T11221178

More Conditions Fewer Conditions

10-Day Weather Forecast

Almanac

Astronomy

Dec. 28, 2014 Rise Set
Actual Time
Civil Twilight
Nautical Twilight
Astronomical Twilight
Moon
Length of Visible Light
Length of Day
Tomorrow will be .
, % of the Moon is Illuminated

Today's Extremes

State Highs State Lows

Community

WunderPhotos

Upload Photos

1,781,489 photos uploaded!

WunderBlogs® & News

Nearby

Air Quality

  Air Quality AQ Index Pollutant
Not available.

Snow Depth

Station Depth Elevation

Earthquake Activity

City Distance Mag. Time & Date
Minimum magnitude displayed is 2.5.

Coastal Water Temperatures

Place Temperature

Nearby Weather Stations